Main page
METAR-TAF:

METAR-TAF

Airports :

Hakkari–Yüksekova Airport

Yüksekova, Turkey

latitude: 37-33-06N, longitude: 44-14-01E, elevation: 1950 m

Current weather observation

The report was made 29 minutes ago, at 09:50 UTC
Wind 10 kt from the Northeast, varying between North and East
Temperature 20°C
Humidity 24%
Pressure 1021 hPa
Visibility 10 km or more
Few clouds at a height of 4000 ft

METAR: LTCW 250950Z 05010KT 360V090 9999 FEW040 20/M01 Q1021

Time: 13:19 (10:19 UTC)

Forecast

The report was made 2 hours and 39 minutes ago, at 07:40 UTC
Forecast valid from 25 at 09 UTC to 25 at 18 UTC
Wind 9 kt from the North/Northeast
Visibility 10 km or more
Few clouds at a height of 4000 ft
Scattered clouds at a height of 18000 ft

TAF: LTCW 250740Z 2509/2518 03009KT 9999 FEW040 SCT180

Weather observations and forecasts of more than 4000 airports (METAR and TAF reports).

The available stations are represented by yellow and red dots on the map.

Hover mouse over dot to see the name of the station.

Then click to see weather observations and forecasts.

To change the map : click on the green buttons with a black cross to zoom in, on the green button with a dash to zoom out, or on the green arrows for adjacent maps.


METAR-TAF: